Oceanus — WXAQ — position and weather

sailwx.info

Track history (hours):
 
Tides and Currents Weather Stations Pressure Air Temp Water Temp Dewpoint Dewpoint Depression Visibility Wind Speed Wind Dir Waves Ship Positions

Oceanographic research ship Oceanus (USA)

Detailed information on ship capabilities available from University of Delaware's Ocean Information Center and ARCUS's ALIAS (Arctic Logistics Information and Support) project.

Owner: Oregon State University, Newport, OR. More information available from US FCC via Universal Licensing System.

Last reported at 2019-Nov-15 18:00 UTC. Time now 2019-Nov-15 23:40 UTC.
Position N 34°06' W 121°06'.

Length 54 m; draft 6.1 m.

Type: Other ship. MMSI: 367977000.

Wind from 340 at 20 knots

Barometer 1021.4 mb
Air temperature 15.6 ° C
Visibility: greater than 5.4 NM
Dewpoint 13.5 ° C
Water temperature 16.9 ° C

Date/timePositionNaut miles runAvg speedWind from/ knotsBaromVisibWave heightAir tempDewpointWater temp
2019-Nov-15 18:00N 34°06' W 121°06'88 4.9 340 / 201021.4 5.4 15.613.516.9
2019-Nov-15 00:00N 34°15' W 119°20'5 3.0
2019-Nov-14 22:28N 34°13' W 119°25'15 4.9
2019-Nov-14 19:26N 33°59' W 119°30'711.5
2019-Nov-14 18:48N 33°53' W 119°34'310.5
2019-Nov-14 18:30N 33°53' W 119°38'911.8
2019-Nov-14 17:44N 33°53' W 119°49'39 5.4
2019-Nov-14 10:26N 33°40' W 120°34'24 6.0
2019-Nov-14 06:30N 33°28' W 120°58'27 9.3
2019-Nov-14 03:34N 33°15' W 121°27'0 0.2
2019-Nov-14 01:59N 33°14' W 121°27'3115.4
2019-Nov-14 00:00N 32°54' W 121°54'816.2 1016.3 5.4 17.214.315.8
2019-Nov-13 23:29N 32°57' W 122°03'58 6.8
2019-Nov-13 15:00N 32°24' W 123°00'74 6.2 240 / 21016.6 5.4 15.513.517.3
2019-Nov-13 03:00N 31°30' W 124°00'49 4.1 1017.8 5.4 16.613.819.6
2019-Nov-12 15:09N 31°39' W 123°04'1 1.1
2019-Nov-12 14:42N 31°38' W 123°03'8 8.5
2019-Nov-12 13:45N 31°43' W 122°55'311.5
2019-Nov-12 13:30N 31°44' W 122°53'811.4
2019-Nov-12 12:47N 31°49' W 122°45'911.4
2019-Nov-12 12:00N 31°54' W 122°36'12 5.9
2019-Nov-12 10:00N 31°59' W 122°24'5 4.3
2019-Nov-12 08:55N 32°02' W 122°19'3512.0
2019-Nov-12 06:00N 32°18' W 121°42'39 6.6 010 / 61019.1 14.012.216.3
2019-Nov-12 00:00N 32°39' W 121°03'13 4.8
2019-Nov-11 21:11N 32°46' W 120°49'211.5
2019-Nov-11 21:00N 32°47' W 120°46'25 9.8
2019-Nov-11 18:28N 32°59' W 120°21'1 1.1
2019-Nov-11 17:16N 33°00' W 120°22'0 1.6
2019-Nov-11 16:59N 32°60' W 120°22'1 1.8
2019-Nov-11 16:30N 32°59' W 120°21'12 8.1
2019-Nov-11 15:00N 33°05' W 120°08'8 3.9
2019-Nov-11 13:00N 33°09' W 120°00'3 2.5
2019-Nov-11 11:59N 33°11' W 119°58'1710.5
2019-Nov-11 10:21N 33°19' W 119°40'3 2.4
2019-Nov-11 08:56N 33°21' W 119°37'17 5.7
2019-Nov-11 06:00N 33°29' W 119°19'0 0.0
2019-Nov-11 05:30N 33°29' W 119°19'17 8.7
2019-Nov-11 03:30N 33°38' W 119°01'2 2.4
2019-Nov-11 02:30N 33°39' W 118°59'0 0.1
2019-Nov-11 02:00N 33°39' W 118°59'0 0.1
2019-Nov-11 01:00N 33°39' W 118°59'3 6.5
2019-Nov-11 00:30N 33°42' W 118°57'1211.4
2019-Nov-10 23:29N 33°53' W 118°52'8 7.8
2019-Nov-10 22:30N 34°01' W 118°50'15 9.9
2019-Nov-10 21:00N 33°50' W 118°38'2 0.9
2019-Nov-10 18:30N 33°51' W 118°36'8 3.3
2019-Nov-10 16:00N 33°53' W 118°26'41 5.9
2019-Nov-10 09:00N 33°29' W 117°46'8 2.6
2019-Nov-10 06:00N 33°25' W 117°54'20 9.8
2019-Nov-10 04:00N 33°15' W 118°14'7 2.4
2019-Nov-10 01:00N 33°12' W 118°22'1 0.7
2019-Nov-09 23:30N 33°11' W 118°23'0 0.1
2019-Nov-09 23:00N 33°11' W 118°23'82 6.6
2019-Nov-09 10:30N 32°30' W 119°49'611.1
2019-Nov-09 10:00N 32°28' W 119°54'14 3.5
2019-Nov-09 06:00N 32°18' W 120°06'3110.6 320 / 221019.1 5.4 15.014.117.2
2019-Nov-09 03:07N 32°05' W 120°39'52 5.7
2019-Nov-08 18:00N 31°36' W 121°30'95 7.9 350 / 151022.2 5.4 15.013.216.7
2019-Nov-08 06:00N 30°48' W 123°06'60 5.0 1021.6 5.4 16.013.319.8
2019-Nov-07 18:00N 29°54' W 123°36'35 5.8 350 / 81021.2 5.4 17.213.320.1
2019-Nov-07 11:56N 30°10' W 122°60'4 3.2
2019-Nov-07 10:42N 30°11' W 122°55'29 8.5
2019-Nov-07 07:16N 30°26' W 122°26'30 6.6
2019-Nov-07 02:40N 30°41' W 121°56'211.2
2019-Nov-07 02:28N 30°42' W 121°53'42 7.6
2019-Nov-06 20:57N 31°03' W 121°11'37 6.8
2019-Nov-06 15:29N 31°21' W 120°33'811.2
2019-Nov-06 14:48N 31°25' W 120°25'411.1
2019-Nov-06 14:27N 31°27' W 120°22'510.9
2019-Nov-06 14:00N 31°30' W 120°17'1 2.5
2019-Nov-06 13:30N 31°30' W 120°15'35 7.0
2019-Nov-06 08:30N 31°48' W 119°40'5 2.6
2019-Nov-06 06:30N 31°51' W 119°34'10 6.9
2019-Nov-06 05:00N 31°56' W 119°24'9 9.1
2019-Nov-06 04:00N 32°01' W 119°15'1 0.5
2019-Nov-06 02:00N 32°01' W 119°14'19 9.6
2019-Nov-06 00:00N 32°11' W 118°55'1 0.5
2019-Nov-05 22:30N 32°11' W 118°54'20 5.0
2019-Nov-05 18:30N 32°21' W 118°33'0 0.2
2019-Nov-05 18:00N 32°21' W 118°33'  
Track history (hours):
 
Tides and Currents Weather Stations Pressure Air Temp Water Temp Dewpoint Dewpoint Depression Visibility Wind Speed Wind Dir Waves Ship Positions

Oceanographic research ship Oceanus (USA)

Detailed information on ship capabilities available from University of Delaware's Ocean Information Center and ARCUS's ALIAS (Arctic Logistics Information and Support) project.

Owner: Oregon State University, Newport, OR. More information available from US FCC via Universal Licensing System.

Last reported at 2019-Nov-15 18:00 UTC. Time now 2019-Nov-15 23:40 UTC.
Position N 34°06' W 121°06'.

Length 54 m; draft 6.1 m.

Type: Other ship. MMSI: 367977000.

Wind from 340 at 20 knots

Barometer 1021.4 mb
Air temperature 15.6 ° C
Visibility: greater than 5.4 NM
Dewpoint 13.5 ° C
Water temperature 16.9 ° C

Date/timePositionNaut miles runAvg speedWind from/ knotsBaromVisibWave heightAir tempDewpointWater temp
2019-Nov-15 18:00N 34°06' W 121°06'88 4.9 340 / 201021.4 5.4 15.613.516.9
2019-Nov-15 00:00N 34°15' W 119°20'5 3.0
2019-Nov-14 22:28N 34°13' W 119°25'15 4.9
2019-Nov-14 19:26N 33°59' W 119°30'711.5
2019-Nov-14 18:48N 33°53' W 119°34'310.5
2019-Nov-14 18:30N 33°53' W 119°38'911.8
2019-Nov-14 17:44N 33°53' W 119°49'39 5.4
2019-Nov-14 10:26N 33°40' W 120°34'24 6.0
2019-Nov-14 06:30N 33°28' W 120°58'27 9.3
2019-Nov-14 03:34N 33°15' W 121°27'0 0.2
2019-Nov-14 01:59N 33°14' W 121°27'3115.4
2019-Nov-14 00:00N 32°54' W 121°54'816.2 1016.3 5.4 17.214.315.8
2019-Nov-13 23:29N 32°57' W 122°03'58 6.8
2019-Nov-13 15:00N 32°24' W 123°00'74 6.2 240 / 21016.6 5.4 15.513.517.3
2019-Nov-13 03:00N 31°30' W 124°00'49 4.1 1017.8 5.4 16.613.819.6
2019-Nov-12 15:09N 31°39' W 123°04'1 1.1
2019-Nov-12 14:42N 31°38' W 123°03'8 8.5
2019-Nov-12 13:45N 31°43' W 122°55'311.5
2019-Nov-12 13:30N 31°44' W 122°53'811.4
2019-Nov-12 12:47N 31°49' W 122°45'911.4
2019-Nov-12 12:00N 31°54' W 122°36'12 5.9
2019-Nov-12 10:00N 31°59' W 122°24'5 4.3
2019-Nov-12 08:55N 32°02' W 122°19'3512.0
2019-Nov-12 06:00N 32°18' W 121°42'39 6.6 010 / 61019.1 14.012.216.3
2019-Nov-12 00:00N 32°39' W 121°03'13 4.8
2019-Nov-11 21:11N 32°46' W 120°49'211.5
2019-Nov-11 21:00N 32°47' W 120°46'25 9.8
2019-Nov-11 18:28N 32°59' W 120°21'1 1.1
2019-Nov-11 17:16N 33°00' W 120°22'0 1.6
2019-Nov-11 16:59N 32°60' W 120°22'1 1.8
2019-Nov-11 16:30N 32°59' W 120°21'12 8.1
2019-Nov-11 15:00N 33°05' W 120°08'8 3.9
2019-Nov-11 13:00N 33°09' W 120°00'3 2.5
2019-Nov-11 11:59N 33°11' W 119°58'1710.5
2019-Nov-11 10:21N 33°19' W 119°40'3 2.4
2019-Nov-11 08:56N 33°21' W 119°37'17 5.7
2019-Nov-11 06:00N 33°29' W 119°19'0 0.0
2019-Nov-11 05:30N 33°29' W 119°19'17 8.7
2019-Nov-11 03:30N 33°38' W 119°01'2 2.4
2019-Nov-11 02:30N 33°39' W 118°59'0 0.1
2019-Nov-11 02:00N 33°39' W 118°59'0 0.1
2019-Nov-11 01:00N 33°39' W 118°59'3 6.5
2019-Nov-11 00:30N 33°42' W 118°57'1211.4
2019-Nov-10 23:29N 33°53' W 118°52'8 7.8
2019-Nov-10 22:30N 34°01' W 118°50'15 9.9
2019-Nov-10 21:00N 33°50' W 118°38'2 0.9
2019-Nov-10 18:30N 33°51' W 118°36'8 3.3
2019-Nov-10 16:00N 33°53' W 118°26'41 5.9
2019-Nov-10 09:00N 33°29' W 117°46'8 2.6
2019-Nov-10 06:00N 33°25' W 117°54'20 9.8
2019-Nov-10 04:00N 33°15' W 118°14'7 2.4
2019-Nov-10 01:00N 33°12' W 118°22'1 0.7
2019-Nov-09 23:30N 33°11' W 118°23'0 0.1
2019-Nov-09 23:00N 33°11' W 118°23'82 6.6
2019-Nov-09 10:30N 32°30' W 119°49'611.1
2019-Nov-09 10:00N 32°28' W 119°54'14 3.5
2019-Nov-09 06:00N 32°18' W 120°06'3110.6 320 / 221019.1 5.4 15.014.117.2
2019-Nov-09 03:07N 32°05' W 120°39'52 5.7
2019-Nov-08 18:00N 31°36' W 121°30'95 7.9 350 / 151022.2 5.4 15.013.216.7
2019-Nov-08 06:00N 30°48' W 123°06'60 5.0 1021.6 5.4 16.013.319.8
2019-Nov-07 18:00N 29°54' W 123°36'35 5.8 350 / 81021.2 5.4 17.213.320.1
2019-Nov-07 11:56N 30°10' W 122°60'4 3.2
2019-Nov-07 10:42N 30°11' W 122°55'29 8.5
2019-Nov-07 07:16N 30°26' W 122°26'30 6.6
2019-Nov-07 02:40N 30°41' W 121°56'211.2
2019-Nov-07 02:28N 30°42' W 121°53'42 7.6
2019-Nov-06 20:57N 31°03' W 121°11'37 6.8
2019-Nov-06 15:29N 31°21' W 120°33'811.2
2019-Nov-06 14:48N 31°25' W 120°25'411.1
2019-Nov-06 14:27N 31°27' W 120°22'510.9
2019-Nov-06 14:00N 31°30' W 120°17'1 2.5
2019-Nov-06 13:30N 31°30' W 120°15'35 7.0
2019-Nov-06 08:30N 31°48' W 119°40'5 2.6
2019-Nov-06 06:30N 31°51' W 119°34'10 6.9
2019-Nov-06 05:00N 31°56' W 119°24'9 9.1
2019-Nov-06 04:00N 32°01' W 119°15'1 0.5
2019-Nov-06 02:00N 32°01' W 119°14'19 9.6
2019-Nov-06 00:00N 32°11' W 118°55'1 0.5
2019-Nov-05 22:30N 32°11' W 118°54'20 5.0
2019-Nov-05 18:30N 32°21' W 118°33'0 0.2
2019-Nov-05 18:00N 32°21' W 118°33'  

Dump ship's entire track history